createdAt,value
2022-08-02T00:00:35.382Z,21.88
2022-08-02T00:03:05.961Z,21.85
2022-08-02T00:05:33.797Z,21.77
2022-08-02T00:08:01.771Z,21.67
2022-08-02T00:10:30.539Z,21.56
2022-08-02T00:12:59.067Z,21.60
2022-08-02T00:15:28.364Z,21.60
2022-08-02T00:17:56.292Z,21.52
2022-08-02T00:20:24.261Z,21.46
2022-08-02T00:22:52.106Z,21.28
2022-08-02T00:25:19.983Z,21.25
2022-08-02T00:27:47.743Z,21.30
2022-08-02T00:30:15.563Z,21.28
2022-08-02T00:32:44.969Z,21.30
2022-08-02T00:35:12.824Z,21.22
2022-08-02T00:37:41.676Z,21.25
2022-08-02T00:40:13.465Z,21.26
2022-08-02T00:42:44.112Z,21.28
2022-08-02T00:45:12.171Z,21.26
2022-08-02T00:47:41.863Z,21.02
2022-08-02T00:50:11.474Z,21.12
2022-08-02T00:52:41.464Z,21.15
2022-08-02T00:55:10.466Z,21.01
2022-08-02T00:57:39.761Z,20.95
2022-08-02T01:00:09.534Z,20.91
2022-08-02T01:02:37.477Z,20.92
2022-08-02T01:05:05.880Z,20.91
2022-08-02T01:07:35.190Z,20.95
2022-08-02T01:10:03.349Z,20.98
2022-08-02T01:12:35.027Z,20.96
2022-08-02T01:15:06.829Z,20.90
2022-08-02T01:17:39.792Z,20.97
2022-08-02T01:20:19.080Z,21.05
2022-08-02T01:23:03.621Z,21.05
2022-08-02T01:25:51.598Z,21.03
2022-08-02T01:28:37.421Z,21.01
2022-08-02T01:31:17.890Z,20.98
2022-08-02T01:33:49.951Z,20.97
2022-08-02T01:36:21.636Z,20.87
2022-08-02T01:38:53.195Z,20.77
2022-08-02T01:41:24.700Z,20.79
2022-08-02T01:43:58.084Z,20.84
2022-08-02T01:46:27.930Z,20.80
2022-08-02T01:48:58.980Z,20.82
2022-08-02T01:51:52.740Z,20.80
2022-08-02T01:54:23.618Z,20.80
2022-08-02T01:56:53.015Z,20.77
2022-08-02T01:59:23.887Z,20.72
2022-08-02T02:01:54.964Z,20.66
2022-08-02T02:04:26.219Z,20.29
2022-08-02T02:06:54.873Z,19.85
2022-08-02T02:09:28.779Z,19.47
2022-08-02T02:12:06.506Z,19.53
2022-08-02T02:14:50.004Z,19.60
2022-08-02T02:17:52.052Z,19.63
2022-08-02T02:20:14.315Z,19.61
2022-08-02T02:22:42.368Z,19.45
2022-08-02T02:25:15.046Z,19.42
2022-08-02T02:27:50.244Z,19.44
2022-08-02T02:30:20.109Z,19.57
2022-08-02T02:32:50.393Z,19.67
2022-08-02T02:35:19.146Z,19.68
2022-08-02T02:37:50.639Z,19.75
2022-08-02T02:40:21.364Z,19.89
2022-08-02T02:42:52.406Z,19.68
2022-08-02T02:45:22.903Z,19.79
2022-08-02T02:47:54.596Z,19.80
2022-08-02T02:50:23.278Z,19.65
2022-08-02T02:52:51.870Z,19.64
2022-08-02T02:55:19.870Z,19.68
2022-08-02T02:57:48.438Z,19.76
2022-08-02T03:00:16.843Z,19.85
2022-08-02T03:02:48.266Z,19.86
2022-08-02T03:05:17.057Z,19.90
2022-08-02T03:07:44.897Z,19.83
2022-08-02T03:10:14.851Z,19.84
2022-08-02T03:12:42.695Z,19.93
2022-08-02T03:15:15.157Z,19.92
2022-08-02T03:17:44.510Z,19.86
2022-08-02T03:20:16.527Z,19.79
2022-08-02T03:22:45.722Z,19.76
2022-08-02T03:25:15.945Z,19.72
2022-08-02T03:27:43.900Z,19.64
2022-08-02T03:30:14.492Z,19.60
2022-08-02T03:32:46.039Z,19.61
2022-08-02T03:35:23.095Z,19.62
2022-08-02T03:37:54.122Z,19.56
2022-08-02T03:40:22.725Z,19.52
2022-08-02T03:42:51.713Z,19.55
2022-08-02T03:45:19.815Z,19.54
2022-08-02T03:47:48.359Z,19.45
2022-08-02T03:50:22.812Z,19.40
2022-08-02T03:52:51.452Z,19.33
2022-08-02T03:55:19.326Z,19.36
2022-08-02T03:57:47.186Z,19.27
2022-08-02T04:00:20.536Z,19.37
2022-08-02T04:02:49.309Z,19.34
2022-08-02T04:05:20.620Z,19.32
2022-08-02T04:08:02.448Z,19.28
2022-08-02T04:10:51.487Z,19.32
2022-08-02T04:13:22.758Z,19.33
2022-08-02T04:15:54.970Z,19.31
2022-08-02T04:18:28.169Z,19.36
2022-08-02T04:21:03.281Z,19.37
2022-08-02T04:23:34.222Z,19.46
2022-08-02T04:26:04.025Z,19.53
2022-08-02T04:28:37.583Z,19.56
2022-08-02T04:31:06.952Z,19.59
2022-08-02T04:33:35.950Z,19.56
2022-08-02T04:36:06.943Z,19.61
2022-08-02T04:38:37.692Z,19.73
2022-08-02T04:41:05.514Z,19.81
2022-08-02T04:43:33.370Z,19.89
2022-08-02T04:46:02.749Z,19.97
2022-08-02T04:48:30.643Z,20.00
2022-08-02T04:50:58.789Z,20.07
2022-08-02T04:53:28.046Z,20.15
2022-08-02T04:55:55.866Z,20.20
2022-08-02T04:58:40.000Z,20.28
2022-08-02T05:01:10.873Z,20.36
2022-08-02T05:03:38.782Z,20.38
2022-08-02T05:06:07.634Z,20.43
2022-08-02T05:08:52.848Z,20.52
2022-08-02T05:11:22.122Z,20.55
2022-08-02T05:13:58.863Z,20.62
2022-08-02T05:16:30.859Z,20.72
2022-08-02T05:19:00.308Z,20.82
2022-08-02T05:21:28.952Z,20.85
2022-08-02T05:23:58.622Z,20.86
2022-08-02T05:26:26.499Z,20.96
2022-08-02T05:28:54.339Z,21.08
2022-08-02T05:31:22.403Z,21.11
2022-08-02T05:33:50.333Z,21.11
2022-08-02T05:36:18.273Z,21.11
2022-08-02T05:38:50.813Z,21.08
2022-08-02T05:41:20.646Z,20.88
2022-08-02T05:43:50.759Z,21.07
2022-08-02T05:46:18.902Z,21.19
2022-08-02T05:48:46.765Z,21.23
2022-08-02T05:51:23.570Z,21.32
2022-08-02T05:53:55.300Z,21.25
2022-08-02T05:56:36.303Z,21.36
2022-08-02T05:59:06.309Z,21.52
2022-08-02T06:01:36.679Z,21.62
2022-08-02T06:04:08.889Z,21.57
2022-08-02T06:06:38.573Z,21.65
2022-08-02T06:09:11.040Z,21.60
2022-08-02T06:12:01.698Z,21.71
2022-08-02T06:14:34.125Z,21.73
2022-08-02T06:17:05.922Z,21.62
2022-08-02T06:19:50.963Z,21.73
2022-08-02T06:22:42.131Z,21.41
2022-08-02T06:25:48.451Z,21.56
2022-08-02T06:27:59.347Z,21.84
2022-08-02T06:30:28.152Z,21.94
2022-08-02T06:32:56.916Z,22.12
2022-08-02T06:35:30.734Z,22.26
2022-08-02T06:38:01.804Z,22.04
2022-08-02T06:40:33.645Z,22.02
2022-08-02T06:43:19.021Z,22.26
2022-08-02T06:45:46.937Z,22.47
2022-08-02T06:48:15.035Z,22.53
2022-08-02T06:50:44.205Z,22.53
2022-08-02T06:53:12.701Z,22.66
2022-08-02T06:55:43.820Z,22.72
2022-08-02T06:58:13.555Z,22.96
2022-08-02T07:00:41.704Z,22.65
2022-08-02T07:03:09.682Z,22.12
2022-08-02T07:05:37.655Z,22.46
2022-08-02T07:08:05.925Z,22.59
2022-08-02T07:10:33.756Z,22.73
2022-08-02T07:13:01.609Z,23.44
2022-08-02T07:15:30.904Z,23.97
2022-08-02T07:17:58.812Z,24.07
2022-08-02T07:20:26.674Z,24.32
2022-08-02T07:22:54.558Z,24.12
2022-08-02T07:25:23.757Z,24.71
2022-08-02T07:27:51.949Z,24.62
2022-08-02T07:30:19.888Z,24.55
2022-08-02T07:32:51.733Z,24.92
2022-08-02T07:35:21.199Z,25.53
2022-08-02T07:37:54.566Z,25.70
2022-08-02T07:40:29.484Z,26.21
2022-08-02T07:43:03.436Z,26.44
2022-08-02T07:45:32.854Z,25.97
2022-08-02T07:48:06.086Z,25.92
2022-08-02T07:50:34.008Z,25.91
2022-08-02T07:53:02.244Z,26.52
2022-08-02T07:55:35.215Z,27.33
2022-08-02T07:58:10.916Z,27.68
2022-08-02T08:00:40.872Z,28.01
2022-08-02T08:03:12.591Z,27.65
2022-08-02T08:05:40.809Z,27.31
2022-08-02T08:08:16.707Z,27.34
2022-08-02T08:10:45.638Z,27.92
2022-08-02T08:13:13.583Z,28.14
2022-08-02T08:15:41.492Z,28.65
2022-08-02T08:18:21.388Z,27.83
2022-08-02T08:20:49.363Z,27.98
2022-08-02T08:23:17.215Z,27.33
2022-08-02T08:25:45.138Z,28.29
2022-08-02T08:28:13.449Z,29.21
2022-08-02T08:30:42.202Z,28.62
2022-08-02T08:33:10.418Z,29.23
2022-08-02T08:35:39.855Z,28.17
2022-08-02T08:38:08.342Z,28.97
2022-08-02T08:40:37.081Z,29.39
2022-08-02T08:43:07.447Z,29.58
2022-08-02T08:45:35.643Z,30.31
2022-08-02T08:48:12.696Z,29.50
2022-08-02T08:50:48.637Z,30.42
2022-08-02T08:53:17.294Z,31.09
2022-08-02T08:55:53.501Z,31.13
2022-08-02T08:58:23.955Z,29.64
2022-08-02T09:00:54.906Z,27.85
2022-08-02T09:03:22.700Z,29.07
2022-08-02T09:05:52.249Z,29.04
2022-08-02T09:08:23.494Z,28.98
2022-08-02T09:10:51.632Z,29.63
2022-08-02T09:13:38.626Z,29.30
2022-08-02T09:16:12.196Z,29.24
2022-08-02T09:18:44.505Z,29.94
2022-08-02T09:21:15.320Z,29.23
2022-08-02T09:23:44.868Z,30.76
2022-08-02T09:26:15.331Z,30.74
2022-08-02T09:28:46.111Z,31.17
2022-08-02T09:31:17.066Z,31.64
2022-08-02T09:33:47.120Z,31.77
2022-08-02T09:36:18.022Z,31.74
2022-08-02T09:38:54.857Z,32.08
2022-08-02T09:41:24.397Z,32.06
2022-08-02T09:44:05.589Z,32.93
2022-08-02T09:46:38.333Z,31.84
2022-08-02T09:49:10.714Z,32.13
2022-08-02T09:51:42.200Z,33.00
2022-08-02T09:54:12.738Z,33.37
2022-08-02T09:56:43.562Z,32.76
2022-08-02T09:59:11.930Z,33.14
2022-08-02T10:01:40.386Z,33.02
2022-08-02T10:04:22.740Z,31.52
2022-08-02T10:06:55.349Z,30.91
2022-08-02T10:09:23.909Z,31.14
2022-08-02T10:11:52.756Z,31.23
2022-08-02T10:14:23.468Z,31.41
2022-08-02T10:16:54.576Z,29.61
2022-08-02T10:20:01.143Z,29.06
2022-08-02T10:22:16.460Z,31.20
2022-08-02T10:24:48.285Z,32.22
2022-08-02T10:27:20.114Z,30.42
2022-08-02T10:29:55.512Z,30.00
2022-08-02T10:32:29.507Z,32.11
2022-08-02T10:35:19.000Z,32.90
2022-08-02T10:37:53.273Z,33.23
2022-08-02T10:40:26.670Z,33.47
2022-08-02T10:42:59.397Z,34.20
2022-08-02T10:45:30.069Z,33.72
2022-08-02T10:47:59.583Z,33.33
2022-08-02T10:51:03.867Z,33.39
2022-08-02T10:53:36.781Z,33.60
2022-08-02T10:56:06.525Z,32.84
2022-08-02T10:58:37.552Z,33.23
2022-08-02T11:01:06.844Z,31.88
2022-08-02T11:03:42.841Z,32.23
2022-08-02T11:06:26.278Z,33.08
2022-08-02T11:09:33.418Z,33.90
2022-08-02T11:12:04.212Z,34.10
2022-08-02T11:14:33.323Z,33.82
2022-08-02T11:17:15.541Z,34.04
2022-08-02T11:20:20.918Z,33.53
2022-08-02T11:22:50.217Z,31.69
2022-08-02T11:28:25.451Z,31.48
2022-08-02T11:31:02.653Z,31.35
2022-08-02T11:33:36.306Z,31.43
2022-08-02T11:36:08.086Z,29.76
2022-08-02T11:38:36.326Z,31.58
2022-08-02T11:41:09.942Z,32.96
2022-08-02T11:43:41.244Z,33.21
2022-08-02T11:46:15.176Z,32.13
2022-08-02T11:48:44.584Z,32.11
2022-08-02T11:51:13.690Z,30.83
2022-08-02T11:53:51.035Z,30.98
2022-08-02T11:56:27.837Z,31.30
2022-08-02T11:59:02.937Z,30.19
2022-08-02T12:01:32.289Z,30.06
2022-08-02T12:04:12.967Z,32.11
2022-08-02T12:06:40.870Z,32.44
2022-08-02T12:09:18.903Z,31.89
2022-08-02T12:11:51.440Z,31.58
2022-08-02T12:14:19.398Z,32.08
2022-08-02T12:17:06.443Z,32.49
2022-08-02T12:19:35.336Z,32.23
2022-08-02T12:22:12.466Z,32.75
2022-08-02T12:24:44.511Z,32.23
2022-08-02T12:27:36.758Z,33.17
2022-08-02T12:30:10.409Z,33.59
2022-08-02T12:32:38.715Z,33.79
2022-08-02T12:35:10.549Z,33.55
2022-08-02T12:37:40.143Z,33.93
2022-08-02T12:40:25.117Z,32.75
2022-08-02T12:43:00.685Z,33.81
2022-08-02T12:45:38.315Z,34.74
2022-08-02T12:48:09.542Z,35.12
2022-08-02T12:50:38.133Z,34.59
2022-08-02T12:53:08.506Z,32.59
2022-08-02T12:56:00.704Z,32.22
2022-08-02T12:58:30.240Z,32.59
2022-08-02T13:01:00.080Z,33.19
2022-08-02T13:04:10.420Z,31.84
2022-08-02T13:06:40.984Z,33.10
2022-08-02T13:09:13.654Z,34.21
2022-08-02T13:11:44.346Z,34.03
2022-08-02T13:14:14.671Z,34.62
2022-08-02T13:16:44.151Z,33.94
2022-08-02T13:19:13.033Z,34.61
2022-08-02T13:22:00.815Z,35.23
2022-08-02T13:24:38.518Z,34.65
2022-08-02T13:27:09.867Z,33.62
2022-08-02T13:29:39.665Z,33.02
2022-08-02T13:32:07.859Z,32.20
2022-08-02T13:34:35.862Z,33.11
2022-08-02T13:37:04.797Z,32.80
2022-08-02T13:39:32.781Z,31.63
2022-08-02T13:42:00.749Z,31.11
2022-08-02T13:44:28.612Z,30.93
2022-08-02T13:46:58.020Z,31.15
2022-08-02T13:49:51.128Z,31.22
2022-08-02T13:52:16.218Z,32.08
2022-08-02T13:54:44.534Z,30.34
2022-08-02T13:57:12.302Z,30.92
2022-08-02T13:59:56.601Z,31.45
2022-08-02T14:02:28.677Z,31.87
2022-08-02T14:04:56.870Z,30.96
2022-08-02T14:07:27.039Z,31.80
2022-08-02T14:09:55.213Z,31.44
2022-08-02T14:12:23.064Z,31.16
2022-08-02T14:14:51.244Z,30.78
2022-08-02T14:17:19.718Z,31.11
2022-08-02T14:19:49.201Z,30.78
2022-08-02T14:22:17.126Z,30.75
2022-08-02T14:24:45.298Z,30.78
2022-08-02T14:27:13.473Z,30.94
2022-08-02T14:29:41.362Z,30.69
2022-08-02T14:32:11.789Z,31.64
2022-08-02T14:34:39.835Z,31.74
2022-08-02T14:37:09.020Z,31.69
2022-08-02T14:39:43.600Z,31.03
2022-08-02T14:42:26.951Z,31.33
2022-08-02T14:44:54.782Z,31.78
2022-08-02T14:47:22.622Z,31.25
2022-08-02T14:49:50.816Z,30.94
2022-08-02T14:52:20.888Z,30.97
2022-08-02T14:54:48.934Z,30.90
2022-08-02T14:57:17.040Z,31.38
2022-08-02T14:59:47.423Z,31.68
2022-08-02T15:02:15.996Z,31.52
2022-08-02T15:04:44.131Z,31.24
2022-08-02T15:07:13.135Z,30.68
2022-08-02T15:09:42.379Z,31.27
2022-08-02T15:12:11.808Z,30.95
2022-08-02T15:14:40.482Z,31.10
2022-08-02T15:17:09.155Z,31.63
2022-08-02T15:19:57.845Z,31.33
2022-08-02T15:22:25.040Z,31.06
2022-08-02T15:24:54.364Z,31.40
2022-08-02T15:27:22.185Z,31.17
2022-08-02T15:29:50.018Z,29.97
2022-08-02T15:32:19.732Z,30.59
2022-08-02T15:34:48.148Z,31.27
2022-08-02T15:37:16.051Z,31.17
2022-08-02T15:39:44.282Z,31.56
2022-08-02T15:42:14.004Z,31.15
2022-08-02T15:44:45.060Z,31.22
2022-08-02T15:47:12.927Z,31.35
2022-08-02T15:49:41.766Z,31.74
2022-08-02T15:52:11.123Z,31.56
2022-08-02T15:54:39.402Z,31.46
2022-08-02T15:57:07.680Z,30.80
2022-08-02T15:59:36.939Z,30.55
2022-08-02T16:02:07.592Z,30.39
2022-08-02T16:04:35.670Z,30.87
2022-08-02T16:07:03.671Z,30.13
2022-08-02T16:09:31.498Z,30.13
2022-08-02T16:12:01.821Z,30.49
2022-08-02T16:14:29.689Z,30.70
2022-08-02T16:16:58.873Z,30.66
2022-08-02T16:19:47.597Z,30.43
2022-08-02T16:22:15.669Z,31.10
2022-08-02T16:24:43.787Z,31.13
2022-08-02T16:27:11.951Z,31.05
2022-08-02T16:29:40.121Z,31.00
2022-08-02T16:32:09.398Z,30.90
2022-08-02T16:35:04.107Z,30.11
2022-08-02T16:37:24.962Z,30.20
2022-08-02T16:39:55.095Z,30.30
2022-08-02T16:42:25.896Z,30.51
2022-08-02T16:44:54.847Z,30.14
2022-08-02T16:47:37.127Z,30.10
2022-08-02T16:50:12.296Z,29.96
2022-08-02T16:52:40.255Z,30.01
2022-08-02T16:55:10.936Z,29.82
2022-08-02T16:57:43.205Z,29.81
2022-08-02T17:00:16.201Z,29.94
2022-08-02T17:02:46.977Z,29.81
2022-08-02T17:05:15.511Z,29.81
2022-08-02T17:08:07.974Z,30.23
2022-08-02T17:10:34.603Z,30.04
2022-08-02T17:13:11.617Z,29.66
2022-08-02T17:16:01.361Z,29.73
2022-08-02T17:18:29.821Z,29.49
2022-08-02T17:20:57.916Z,29.37
2022-08-02T17:24:04.100Z,29.33
2022-08-02T17:26:14.306Z,29.22
2022-08-02T17:29:14.465Z,29.16
2022-08-02T17:31:42.406Z,28.99
2022-08-02T17:34:12.425Z,29.28
2022-08-02T17:36:42.779Z,28.82
2022-08-02T17:39:10.994Z,28.94
2022-08-02T17:41:49.275Z,28.76
2022-08-02T17:44:37.596Z,28.86
2022-08-02T17:47:08.437Z,28.72
2022-08-02T17:49:44.421Z,28.64
2022-08-02T17:52:50.382Z,28.70
2022-08-02T17:58:00.839Z,28.60
2022-08-02T18:00:53.148Z,28.60
2022-08-02T18:03:21.306Z,28.58
2022-08-02T18:05:53.441Z,28.61
2022-08-02T18:08:24.788Z,28.86
2022-08-02T18:10:53.488Z,29.04
2022-08-02T18:13:21.816Z,28.58
2022-08-02T18:15:50.321Z,28.37
2022-08-02T18:21:15.953Z,28.57
2022-08-02T18:23:58.177Z,28.39
2022-08-02T18:26:28.398Z,28.68
2022-08-02T18:29:10.962Z,28.67
2022-08-02T18:31:51.084Z,28.67
2022-08-02T18:34:19.547Z,28.05
2022-08-02T18:36:53.435Z,28.16
2022-08-02T18:39:23.449Z,28.35
2022-08-02T18:41:51.256Z,28.68
2022-08-02T18:44:19.125Z,28.53
2022-08-02T18:46:49.152Z,28.55
2022-08-02T18:49:17.445Z,28.40
2022-08-02T18:51:45.774Z,28.49
2022-08-02T18:54:15.603Z,28.40
2022-08-02T18:56:47.135Z,27.98
2022-08-02T18:59:15.849Z,28.11
2022-08-02T19:01:51.030Z,28.26
2022-08-02T19:04:27.778Z,28.18
2022-08-02T19:07:05.439Z,28.21
2022-08-02T19:09:39.838Z,28.16
2022-08-02T19:12:09.259Z,27.87
2022-08-02T19:14:41.315Z,27.96
2022-08-02T19:17:15.907Z,27.92
2022-08-02T19:19:57.144Z,27.91
2022-08-02T19:22:27.489Z,27.76
2022-08-02T19:27:47.312Z,26.80
2022-08-02T19:30:15.678Z,26.56
2022-08-02T19:32:59.434Z,26.36
2022-08-02T19:35:30.620Z,26.26
2022-08-02T19:40:59.330Z,26.92
2022-08-02T19:44:23.039Z,26.28
2022-08-02T19:46:20.429Z,26.02
2022-08-02T19:48:50.075Z,25.86
2022-08-02T19:51:49.271Z,25.51
2022-08-02T19:54:05.840Z,25.47
2022-08-02T19:56:42.539Z,25.50
2022-08-02T19:59:14.090Z,25.48
2022-08-02T20:01:48.428Z,25.40
2022-08-02T20:04:22.868Z,25.18
2022-08-02T20:06:51.671Z,25.14
2022-08-02T20:09:22.887Z,25.15
2022-08-02T20:11:54.261Z,24.54
2022-08-02T20:14:26.979Z,24.46
2022-08-02T20:16:57.138Z,24.66
2022-08-02T20:19:29.092Z,24.69
2022-08-02T20:22:00.943Z,24.86
2022-08-02T20:24:30.364Z,24.86
2022-08-02T20:27:00.369Z,24.82
2022-08-02T20:29:42.984Z,24.73
2022-08-02T20:32:14.593Z,24.68
2022-08-02T20:34:42.849Z,24.53
2022-08-02T20:37:59.224Z,24.41
2022-08-02T20:40:04.944Z,24.29
2022-08-02T20:42:35.172Z,24.45
2022-08-02T20:45:03.061Z,24.45
2022-08-02T20:47:39.375Z,24.38
2022-08-02T20:50:30.438Z,24.42
2022-08-02T20:53:01.852Z,24.44
2022-08-02T20:55:32.071Z,24.41
2022-08-02T20:58:02.697Z,24.34
2022-08-02T21:00:31.656Z,24.18
2022-08-02T21:03:00.495Z,24.10
2022-08-02T21:05:43.657Z,24.14
2022-08-02T21:08:18.675Z,24.08
2022-08-02T21:10:52.253Z,24.05
2022-08-02T21:13:24.094Z,24.07
2022-08-02T21:15:53.241Z,24.06
2022-08-02T21:18:27.848Z,24.03
2022-08-02T21:21:09.099Z,24.00
2022-08-02T21:23:37.413Z,24.01
2022-08-02T21:26:06.452Z,23.99
2022-08-02T21:28:43.839Z,23.97
2022-08-02T21:31:15.992Z,23.76
2022-08-02T21:33:55.221Z,23.65
2022-08-02T21:39:14.926Z,23.42
2022-08-02T21:41:46.632Z,23.50
2022-08-02T21:44:17.640Z,23.53
2022-08-02T21:46:46.622Z,23.51
2022-08-02T21:49:26.973Z,23.38
2022-08-02T21:51:55.645Z,23.06
2022-08-02T21:54:23.892Z,23.20
2022-08-02T21:56:53.400Z,23.24
2022-08-02T21:59:25.799Z,23.21
2022-08-02T22:01:57.053Z,23.20
2022-08-02T22:04:25.934Z,23.22
2022-08-02T22:06:55.099Z,23.21
2022-08-02T22:09:42.093Z,23.13
2022-08-02T22:12:12.772Z,23.07
2022-08-02T22:14:53.783Z,23.11
2022-08-02T22:17:51.930Z,23.07
2022-08-02T22:20:13.649Z,22.86
2022-08-02T22:22:41.885Z,22.79
2022-08-02T22:25:21.745Z,22.66
2022-08-02T22:28:35.762Z,22.50
2022-08-02T22:30:52.719Z,22.47
2022-08-02T22:33:38.897Z,22.57
2022-08-02T22:36:11.402Z,22.24
2022-08-02T22:38:44.433Z,22.09
2022-08-02T22:41:13.396Z,22.20
2022-08-02T22:43:41.675Z,22.30
2022-08-02T22:46:16.805Z,22.30
2022-08-02T22:48:45.511Z,22.37
2022-08-02T22:51:13.974Z,22.44
2022-08-02T22:53:41.857Z,22.08
2022-08-02T22:56:10.592Z,21.89
2022-08-02T22:58:43.670Z,28.81
2022-08-02T22:58:47.819Z,27.69
2022-08-02T22:58:49.641Z,28.62
2022-08-02T22:58:52.549Z,26.78
2022-08-02T22:59:10.805Z,23.39
2022-08-02T23:01:31.060Z,21.77
2022-08-02T23:04:01.411Z,21.97
2022-08-02T23:06:29.497Z,21.99
2022-08-02T23:08:57.269Z,21.87
2022-08-02T23:11:25.088Z,21.73
2022-08-02T23:13:52.908Z,21.21
2022-08-02T23:16:39.338Z,21.03
2022-08-02T23:19:25.970Z,21.30
2022-08-02T23:22:02.692Z,21.43
2022-08-02T23:24:33.184Z,21.48
2022-08-02T23:27:01.492Z,21.54
2022-08-02T23:29:29.448Z,21.27
2022-08-02T23:32:01.890Z,21.02
2022-08-02T23:34:33.143Z,20.85
2022-08-02T23:37:03.812Z,21.06
2022-08-02T23:39:35.540Z,20.98
2022-08-02T23:42:06.173Z,20.99
2022-08-02T23:44:34.332Z,21.07
2022-08-02T23:47:02.417Z,21.16
2022-08-02T23:49:30.336Z,21.17
2022-08-02T23:52:11.429Z,21.20
2022-08-02T23:54:39.813Z,21.14
2022-08-02T23:57:20.042Z,20.70
2022-08-02T23:59:50.858Z,20.81
